Terminal Aerodrome Forecast
Issued by NWS Melbourne, FL

Home | Current Version | Previous Version | Text Only | Print | Product List | Glossary On
Versions: 1 2 3 4 5 6 7 8 9 10 11 12 13 14 15 16 17 18 19 20 21 22
000
FTUS42 KMLB 021732
TAFDAB
TAF
KDAB 021732Z 0218/0318 05007KT P6SM FEW005 SCT035 BKN060
     FM030000 02003KT 4SM BR BKN004
     FM030400 02003KT 1/2SM FG VV002
     FM031500 05004KT P6SM SCT005
     FM031700 09008KT P6SM SCT030=

USA.gov is the U.S. government's official web portal to all federal, state and local government web resources and services.